createdAt,value
2023-08-16T00:02:58.993Z,122
2023-08-16T00:36:07.735Z,124
2023-08-16T01:09:16.767Z,134
2023-08-16T01:25:51.179Z,127
2023-08-16T02:15:35.627Z,128
2023-08-16T02:32:10.353Z,128
2023-08-16T03:05:20.414Z,126
2023-08-16T03:21:56.215Z,127
2023-08-16T03:38:26.277Z,127
2023-08-16T04:11:34.521Z,127
2023-08-16T05:34:29.448Z,124
2023-08-16T05:51:05.327Z,125
2023-08-16T06:07:40.634Z,123
2023-08-16T06:24:15.638Z,123
2023-08-16T06:40:51.880Z,124
2023-08-16T06:57:27.609Z,122
2023-08-16T07:13:58.317Z,119
2023-08-16T07:30:33.113Z,122
2023-08-16T07:47:09.211Z,122
2023-08-16T08:03:45.992Z,123
2023-08-16T08:20:21.973Z,120
2023-08-16T08:53:33.902Z,122
2023-08-16T09:26:44.810Z,120
2023-08-16T09:43:21.482Z,118
2023-08-16T10:16:34.876Z,117
2023-08-16T10:33:13.260Z,118
2023-08-16T10:49:46.392Z,121
2023-08-16T11:06:20.300Z,121
2023-08-16T11:22:54.554Z,117
2023-08-16T11:39:33.339Z,118
2023-08-16T11:56:11.960Z,118
2023-08-16T12:12:51.058Z,115
2023-08-16T12:46:08.347Z,118
2023-08-16T13:02:57.438Z,115
2023-08-16T13:36:05.904Z,113
2023-08-16T13:52:39.896Z,119
2023-08-16T14:09:13.848Z,116
2023-08-16T14:42:30.969Z,120
2023-08-16T14:59:09.472Z,118
2023-08-16T15:15:47.839Z,116
2023-08-16T15:49:04.834Z,116
2023-08-16T16:05:43.695Z,115
2023-08-16T16:22:23.129Z,116
2023-08-16T16:55:41.139Z,115
2023-08-16T17:45:34.806Z,113
2023-08-16T18:02:07.540Z,112
2023-08-16T18:18:39.979Z,111
2023-08-16T18:35:16.275Z,112
2023-08-16T18:51:53.745Z,111
2023-08-16T19:08:31.456Z,111
2023-08-16T19:25:08.694Z,111
2023-08-16T19:41:45.756Z,110
2023-08-16T19:58:22.042Z,110
2023-08-16T20:14:57.619Z,111
2023-08-16T21:04:44.054Z,110
2023-08-16T21:37:57.078Z,109
2023-08-16T21:54:27.939Z,109
2023-08-16T22:11:03.180Z,109
2023-08-16T22:44:13.646Z,108
2023-08-16T23:00:50.034Z,107
2023-08-16T23:17:25.930Z,107
2023-08-16T23:34:01.228Z,106
2023-08-16T23:50:37.056Z,108
